createdAt,value
2023-01-17T00:00:05.143Z,1.7
2023-01-17T00:05:05.107Z,2
2023-01-17T00:10:05.098Z,1.9
2023-01-17T00:15:05.089Z,2
2023-01-17T00:20:05.091Z,1.6
2023-01-17T00:25:05.097Z,1.7
2023-01-17T00:30:05.086Z,1.7
2023-01-17T00:35:05.090Z,2
2023-01-17T00:40:05.086Z,1.8
2023-01-17T00:45:05.090Z,1.8
2023-01-17T00:50:05.089Z,1.8
2023-01-17T00:55:05.092Z,1.7
2023-01-17T01:00:05.083Z,1.7
2023-01-17T01:05:05.096Z,2.2
2023-01-17T01:10:05.088Z,2.7
2023-01-17T01:15:05.090Z,1.9
2023-01-17T01:20:05.095Z,1.8
2023-01-17T01:25:05.081Z,1.8
2023-01-17T01:30:05.092Z,1.8
2023-01-17T01:35:05.085Z,2.6
2023-01-17T01:40:05.075Z,1.9
2023-01-17T01:45:05.079Z,2
2023-01-17T01:50:05.078Z,1.9
2023-01-17T01:55:05.114Z,1.7
2023-01-17T02:00:05.088Z,1.7
2023-01-17T02:05:05.090Z,2.1
2023-01-17T02:10:05.084Z,2
2023-01-17T02:15:05.086Z,2.1
2023-01-17T02:20:05.087Z,2.1
2023-01-17T02:25:05.089Z,1.9
2023-01-17T02:30:05.085Z,1.9
2023-01-17T02:35:05.088Z,2.1
2023-01-17T02:40:05.087Z,2.2
2023-01-17T02:45:05.090Z,1.9
2023-01-17T02:50:05.093Z,1.8
2023-01-17T02:55:05.090Z,2
2023-01-17T03:00:05.088Z,2
2023-01-17T03:05:05.084Z,2
2023-01-17T03:10:05.081Z,2.3
2023-01-17T03:15:05.084Z,2
2023-01-17T03:20:05.100Z,2.3
2023-01-17T03:25:05.103Z,2
2023-01-17T03:30:05.087Z,2
2023-01-17T03:35:05.093Z,2
2023-01-17T03:40:05.175Z,1.9
2023-01-17T03:45:05.106Z,2
2023-01-17T03:50:05.091Z,2.5
2023-01-17T03:55:05.097Z,2.3
2023-01-17T04:00:05.108Z,2.3
2023-01-17T04:05:05.083Z,2.5
2023-01-17T04:10:05.140Z,2.1
2023-01-17T04:15:05.089Z,2.1
2023-01-17T04:20:05.090Z,2.1
2023-01-17T04:25:05.085Z,2
2023-01-17T04:30:05.088Z,2
2023-01-17T04:35:05.091Z,2.2
2023-01-17T04:40:05.088Z,2.4
2023-01-17T04:45:05.084Z,2.3
2023-01-17T04:50:05.087Z,2.4
2023-01-17T04:55:05.104Z,2.2
2023-01-17T05:00:05.100Z,2.2
2023-01-17T05:05:05.102Z,2.8
2023-01-17T05:10:05.148Z,2.2
2023-01-17T05:15:05.094Z,2.4
2023-01-17T05:20:05.092Z,2.7
2023-01-17T05:25:05.092Z,2.6
2023-01-17T05:30:05.089Z,2.6
2023-01-17T05:35:05.086Z,2.9
2023-01-17T05:40:05.089Z,3.1
2023-01-17T05:45:05.085Z,3.3
2023-01-17T05:50:05.088Z,2.9
2023-01-17T05:55:05.087Z,3.4
2023-01-17T06:00:05.084Z,3.4
2023-01-17T06:05:05.114Z,3.2
2023-01-17T06:10:05.095Z,3.5
2023-01-17T06:15:05.091Z,3.3
2023-01-17T06:20:05.094Z,3.4
2023-01-17T06:25:05.110Z,3.2
2023-01-17T06:30:05.091Z,3.2
2023-01-17T06:35:05.096Z,3.6
2023-01-17T06:40:05.088Z,3.7
2023-01-17T06:45:05.092Z,4.4
2023-01-17T06:50:05.142Z,4.7
2023-01-17T06:55:05.097Z,4.1
2023-01-17T07:00:05.156Z,4.1
2023-01-17T07:05:05.084Z,4.1
2023-01-17T07:10:05.082Z,4.1
2023-01-17T07:15:05.091Z,4.4
2023-01-17T07:20:05.091Z,4.4
2023-01-17T07:25:05.095Z,4.5
2023-01-17T07:30:05.079Z,4.5
2023-01-17T07:35:05.099Z,4.4
2023-01-17T07:40:05.086Z,4.7
2023-01-17T07:45:05.098Z,4.6
2023-01-17T07:50:05.090Z,4.2
2023-01-17T07:55:05.110Z,3.8
2023-01-17T08:00:05.095Z,3.8
2023-01-17T08:05:05.074Z,3.4
2023-01-17T08:10:05.122Z,3.1
2023-01-17T08:15:05.095Z,3.4
2023-01-17T08:20:05.096Z,3.3
2023-01-17T08:25:05.089Z,3.4
2023-01-17T08:30:05.088Z,3.4
2023-01-17T08:35:05.090Z,3.5
2023-01-17T08:40:05.095Z,3.4
2023-01-17T08:45:05.100Z,3.2
2023-01-17T08:50:05.088Z,3.7
2023-01-17T08:55:05.097Z,3.4
2023-01-17T09:00:05.078Z,3.4
2023-01-17T09:05:05.097Z,3.4
2023-01-17T09:10:05.092Z,3.1
2023-01-17T09:15:05.087Z,3.3
2023-01-17T09:20:05.091Z,3.6
2023-01-17T09:25:05.095Z,3.3
2023-01-17T09:30:05.089Z,3.3
2023-01-17T09:35:05.091Z,3.2
2023-01-17T09:40:05.087Z,3.3
2023-01-17T09:45:05.094Z,3.2
2023-01-17T09:50:05.090Z,4
2023-01-17T09:55:07.261Z,3.6
2023-01-17T10:00:05.082Z,3.6
2023-01-17T10:05:05.144Z,3.9
2023-01-17T10:10:05.079Z,3.5
2023-01-17T10:15:05.089Z,3.8
2023-01-17T10:20:05.087Z,3.2
2023-01-17T10:25:05.083Z,3.7
2023-01-17T10:30:05.077Z,3.7
2023-01-17T10:35:05.086Z,3.7
2023-01-17T10:40:05.091Z,3.8
2023-01-17T10:45:05.095Z,3.4
2023-01-17T10:50:05.094Z,3.1
2023-01-17T10:55:05.105Z,3.5
2023-01-17T11:00:05.086Z,3.5
2023-01-17T11:05:05.090Z,3.2
2023-01-17T11:10:05.096Z,3.1
2023-01-17T11:15:05.096Z,2.9
2023-01-17T11:20:05.082Z,2.8
2023-01-17T11:25:05.102Z,2.7
2023-01-17T11:30:05.088Z,2.7
2023-01-17T11:35:05.084Z,3
2023-01-17T11:40:05.083Z,2.8
2023-01-17T11:45:05.087Z,2.6
2023-01-17T11:50:05.089Z,2.7
2023-01-17T11:55:05.081Z,2.7
2023-01-17T12:00:05.078Z,2.7
2023-01-17T12:05:05.181Z,2.4
2023-01-17T12:10:05.087Z,2.6
2023-01-17T12:15:05.088Z,2.6
2023-01-17T12:20:05.089Z,2.4
2023-01-17T12:25:05.083Z,2.1
2023-01-17T12:30:05.087Z,2.1
2023-01-17T12:35:05.088Z,3.1
2023-01-17T12:40:05.083Z,2.5
2023-01-17T12:45:05.094Z,2.3
2023-01-17T12:50:05.096Z,2.3
2023-01-17T12:55:05.086Z,2.6
2023-01-17T13:00:05.099Z,2.6
2023-01-17T13:05:05.092Z,2.3
2023-01-17T13:10:05.088Z,2.7
2023-01-17T13:15:05.088Z,2.5
2023-01-17T13:20:05.079Z,2.7
2023-01-17T13:25:05.097Z,3.2
2023-01-17T13:30:05.087Z,3.2
2023-01-17T13:35:05.102Z,3.1
2023-01-17T13:40:05.088Z,3.1
2023-01-17T13:45:05.093Z,3.2
2023-01-17T13:50:05.076Z,3
2023-01-17T13:55:05.105Z,2.8
2023-01-17T14:00:05.079Z,2.8
2023-01-17T14:05:05.101Z,2.1
2023-01-17T14:10:05.180Z,2.5
2023-01-17T14:15:05.085Z,2.9
2023-01-17T14:20:05.107Z,2.7
2023-01-17T14:25:05.135Z,2.6
2023-01-17T14:30:05.089Z,2.6
2023-01-17T14:35:05.102Z,2.6
2023-01-17T14:40:05.106Z,2.8
2023-01-17T14:45:05.087Z,2.8
2023-01-17T14:50:05.125Z,2.7
2023-01-17T14:55:05.088Z,2.6
2023-01-17T15:00:05.090Z,2.6
2023-01-17T15:05:05.093Z,3.1
2023-01-17T15:10:05.088Z,2.6
2023-01-17T15:15:05.094Z,2.6
2023-01-17T15:20:05.110Z,2.9
2023-01-17T15:25:05.090Z,2.7
2023-01-17T15:30:05.085Z,2.7
2023-01-17T15:35:05.086Z,2.4
2023-01-17T15:40:05.084Z,2.8
2023-01-17T15:45:05.089Z,4.4
2023-01-17T15:50:05.090Z,5.1
2023-01-17T15:55:05.077Z,4.1
2023-01-17T16:00:05.084Z,4.1
2023-01-17T16:05:05.091Z,4.3
2023-01-17T16:10:05.092Z,3.4
2023-01-17T16:15:12.666Z,3.8
2023-01-17T16:20:05.089Z,4.1
2023-01-17T16:25:05.099Z,4.1
2023-01-17T16:30:05.084Z,4.1
2023-01-17T16:35:05.083Z,3.5
2023-01-17T16:40:05.148Z,3.1
2023-01-17T16:45:05.098Z,2.6
2023-01-17T16:50:05.100Z,3
2023-01-17T16:55:05.084Z,3.4
2023-01-17T17:00:05.105Z,3.4
2023-01-17T17:05:05.097Z,3.6
2023-01-17T17:10:05.102Z,5.1
2023-01-17T17:15:05.097Z,5.7
2023-01-17T17:20:05.091Z,6.5
2023-01-17T17:25:05.084Z,8.3
2023-01-17T17:30:05.107Z,8.3
2023-01-17T17:35:05.086Z,8.2
2023-01-17T17:40:05.095Z,7.1
2023-01-17T17:45:05.084Z,5.9
2023-01-17T17:50:05.168Z,5.4
2023-01-17T17:55:05.112Z,6.3
2023-01-17T18:00:05.079Z,6.3
2023-01-17T18:05:05.141Z,6.1
2023-01-17T18:10:05.079Z,5.7
2023-01-17T18:15:05.089Z,5.7
2023-01-17T18:20:07.535Z,6
2023-01-17T18:25:05.087Z,6.4
2023-01-17T18:30:05.106Z,6.4
2023-01-17T18:35:05.099Z,6.6
2023-01-17T18:40:05.087Z,7.6
2023-01-17T18:45:05.088Z,7.1
2023-01-17T18:50:05.111Z,6.9
2023-01-17T18:55:05.093Z,6.4
2023-01-17T19:00:05.086Z,6.4
2023-01-17T19:05:05.160Z,6.9
2023-01-17T19:10:05.085Z,6.5
2023-01-17T19:15:05.086Z,6.8
2023-01-17T19:20:05.099Z,6.6
2023-01-17T19:25:05.083Z,6.6
2023-01-17T19:30:05.087Z,6.6
2023-01-17T19:35:05.095Z,8.9
2023-01-17T19:40:05.452Z,6.8
2023-01-17T19:45:05.087Z,6.4
2023-01-17T19:50:05.088Z,6.3
2023-01-17T19:55:05.086Z,6.6
2023-01-17T20:00:05.087Z,6.6
2023-01-17T20:05:05.094Z,7.6
2023-01-17T20:10:05.087Z,6.3
2023-01-17T20:15:05.084Z,6.4
2023-01-17T20:20:05.094Z,5.3
2023-01-17T20:25:05.081Z,5.5
2023-01-17T20:30:18.757Z,5.5
2023-01-17T20:35:05.087Z,6.4
2023-01-17T20:40:05.091Z,6.7
2023-01-17T20:45:05.095Z,5.9
2023-01-17T20:50:05.085Z,5.3
2023-01-17T20:55:05.094Z,5.4
2023-01-17T21:00:05.087Z,5.4
2023-01-17T21:05:05.094Z,5.1
2023-01-17T21:10:05.090Z,5.3
2023-01-17T21:15:05.088Z,4.9
2023-01-17T21:20:05.107Z,5.5
2023-01-17T21:25:05.103Z,4.6
2023-01-17T21:30:05.103Z,4.6
2023-01-17T21:35:05.093Z,4.2
2023-01-17T21:40:05.438Z,4.4
2023-01-17T21:45:05.098Z,4.4
2023-01-17T21:50:05.090Z,4.3
2023-01-17T21:55:05.090Z,4.1
2023-01-17T22:00:05.091Z,4.1
2023-01-17T22:05:05.086Z,4.2
2023-01-17T22:10:05.137Z,3.9
2023-01-17T22:15:05.090Z,3.8
2023-01-17T22:20:05.082Z,4
2023-01-17T22:25:05.168Z,4.6
2023-01-17T22:30:05.086Z,4.6
2023-01-17T22:35:06.775Z,4.9
2023-01-17T22:40:05.098Z,4.2
2023-01-17T22:45:05.100Z,4.3
2023-01-17T22:50:05.087Z,4.6
2023-01-17T22:55:05.095Z,4.3
2023-01-17T23:00:05.081Z,4.3
2023-01-17T23:05:05.080Z,4
2023-01-17T23:10:05.083Z,4.3
2023-01-17T23:15:05.087Z,4.1
2023-01-17T23:20:05.086Z,4.2
2023-01-17T23:25:05.094Z,4.1
2023-01-17T23:30:05.079Z,4.1
2023-01-17T23:35:05.092Z,4.1
2023-01-17T23:40:05.085Z,3.9
2023-01-17T23:45:05.085Z,4.1
2023-01-17T23:50:05.085Z,3.9
2023-01-17T23:55:05.084Z,3.6
